createdAt,value
2023-04-19T00:02:14.146Z,4.57
2023-04-19T00:04:40.804Z,4.55
2023-04-19T00:07:07.606Z,4.88
2023-04-19T00:09:34.193Z,4.40
2023-04-19T00:12:01.141Z,4.47
2023-04-19T00:14:27.735Z,4.30
2023-04-19T00:16:54.360Z,4.03
2023-04-19T00:19:22.326Z,4.13
2023-04-19T00:21:49.196Z,4.05
2023-04-19T00:24:16.105Z,4.03
2023-04-19T00:26:42.723Z,3.85
2023-04-19T00:29:09.596Z,3.08
2023-04-19T00:31:36.087Z,4.40
2023-04-19T00:34:03.919Z,3.53
2023-04-19T00:36:30.689Z,3.83
2023-04-19T00:38:57.289Z,4.05
2023-04-19T00:41:23.795Z,3.17
2023-04-19T00:43:50.366Z,3.92
2023-04-19T00:46:17.029Z,3.78
2023-04-19T00:48:45.316Z,3.58
2023-04-19T00:51:12.747Z,3.10
2023-04-19T00:53:40.554Z,3.58
2023-04-19T00:56:07.242Z,3.35
2023-04-19T00:58:33.795Z,3.53
2023-04-19T01:01:00.432Z,3.17
2023-04-19T01:03:30.273Z,3.33
2023-04-19T01:05:57.469Z,3.15
2023-04-19T01:08:24.287Z,3.50
2023-04-19T01:10:53.659Z,3.47
2023-04-19T01:13:20.166Z,3.13
2023-04-19T01:15:48.301Z,2.75
2023-04-19T01:18:14.996Z,3.30
2023-04-19T01:20:42.618Z,3.25
2023-04-19T01:23:11.597Z,3.83
2023-04-19T01:25:38.912Z,3.03
2023-04-19T01:28:06.205Z,3.00
2023-04-19T01:30:33.022Z,3.25
2023-04-19T01:33:00.314Z,3.42
2023-04-19T01:35:28.420Z,3.22
2023-04-19T01:37:56.258Z,3.50
2023-04-19T01:40:26.718Z,3.08
2023-04-19T01:42:53.436Z,3.38
2023-04-19T01:45:20.078Z,3.80
2023-04-19T01:47:50.242Z,3.93
2023-04-19T01:50:16.866Z,2.80
2023-04-19T01:52:43.513Z,3.65
2023-04-19T01:55:10.326Z,3.85
2023-04-19T01:57:36.827Z,4.40
2023-04-19T02:00:04.103Z,3.30
2023-04-19T02:02:41.184Z,2.90
2023-04-19T02:05:08.523Z,3.42
2023-04-19T02:07:35.252Z,3.78
2023-04-19T02:10:01.824Z,3.50
2023-04-19T02:12:28.906Z,3.45
2023-04-19T02:14:59.544Z,3.40
2023-04-19T02:17:34.344Z,3.78
2023-04-19T02:20:00.914Z,3.50
2023-04-19T02:22:27.513Z,3.63
2023-04-19T02:24:54.095Z,3.40
2023-04-19T02:27:26.942Z,3.35
2023-04-19T02:29:54.304Z,3.25
2023-04-19T02:32:20.969Z,3.20
2023-04-19T02:34:47.472Z,3.05
2023-04-19T02:37:14.105Z,3.50
2023-04-19T02:39:42.602Z,3.05
2023-04-19T02:42:09.105Z,3.30
2023-04-19T02:44:35.593Z,3.15
2023-04-19T02:47:02.129Z,3.65
2023-04-19T02:49:33.110Z,3.13
2023-04-19T02:51:59.986Z,3.03
2023-04-19T02:54:26.696Z,3.33
2023-04-19T02:56:53.238Z,3.22
2023-04-19T02:59:19.735Z,3.47
2023-04-19T03:01:46.525Z,3.15
2023-04-19T03:04:13.461Z,3.67
2023-04-19T03:06:42.114Z,3.75
2023-04-19T03:09:08.649Z,3.35
2023-04-19T03:11:36.941Z,3.20
2023-04-19T03:14:03.525Z,3.40
2023-04-19T03:16:30.266Z,3.25
2023-04-19T03:18:57.093Z,3.38
2023-04-19T03:21:29.089Z,3.22
2023-04-19T03:23:56.140Z,3.00
2023-04-19T03:26:24.479Z,3.90
2023-04-19T03:28:53.402Z,2.50
2023-04-19T03:31:35.079Z,2.83
2023-04-19T03:34:02.655Z,4.43
2023-04-19T03:36:35.566Z,3.15
2023-04-19T03:39:03.654Z,3.28
2023-04-19T03:41:30.214Z,3.10
2023-04-19T03:44:05.320Z,3.08
2023-04-19T03:46:31.939Z,2.88
2023-04-19T03:48:59.382Z,3.00
2023-04-19T03:51:27.328Z,3.28
2023-04-19T03:53:53.872Z,2.88
2023-04-19T03:56:20.717Z,3.22
2023-04-19T03:58:49.267Z,2.75
2023-04-19T04:01:19.862Z,3.35
2023-04-19T04:03:46.578Z,4.78
2023-04-19T04:06:13.378Z,3.28
2023-04-19T04:08:40.083Z,2.85
2023-04-19T04:11:06.575Z,4.18
2023-04-19T04:13:33.135Z,3.25
2023-04-19T04:16:08.401Z,3.88
2023-04-19T04:18:35.201Z,2.95
2023-04-19T04:21:04.591Z,3.00
2023-04-19T04:23:33.850Z,2.95
2023-04-19T04:26:01.796Z,3.60
2023-04-19T04:28:43.024Z,4.13
2023-04-19T04:31:10.230Z,3.08
2023-04-19T04:33:37.180Z,2.88
2023-04-19T04:36:06.141Z,3.40
2023-04-19T04:38:35.821Z,3.10
2023-04-19T04:41:06.048Z,3.10
2023-04-19T04:43:33.583Z,3.33
2023-04-19T04:46:01.026Z,3.13
2023-04-19T04:48:32.806Z,3.08
2023-04-19T04:50:59.356Z,3.25
2023-04-19T04:53:27.218Z,3.05
2023-04-19T04:55:56.526Z,2.85
2023-04-19T04:58:23.196Z,3.08
2023-04-19T05:01:19.637Z,2.88
2023-04-19T05:03:47.566Z,3.33
2023-04-19T05:06:18.238Z,3.13
2023-04-19T05:08:45.647Z,3.38
2023-04-19T05:11:18.681Z,3.20
2023-04-19T05:13:46.079Z,3.10
2023-04-19T05:16:13.519Z,3.20
2023-04-19T05:18:43.261Z,3.38
2023-04-19T05:21:10.470Z,3.65
2023-04-19T05:23:38.603Z,3.25
2023-04-19T05:26:05.800Z,3.10
2023-04-19T05:28:32.623Z,2.80
2023-04-19T05:31:09.170Z,2.85
2023-04-19T05:33:44.077Z,2.67
2023-04-19T05:36:10.685Z,3.47
2023-04-19T05:38:37.238Z,3.17
2023-04-19T05:41:04.809Z,2.75
2023-04-19T05:43:31.346Z,4.18
2023-04-19T05:45:58.351Z,3.20
2023-04-19T05:48:25.601Z,2.80
2023-04-19T05:51:10.226Z,2.60
2023-04-19T05:54:00.672Z,2.72
2023-04-19T05:56:27.205Z,2.20
2023-04-19T05:58:56.202Z,2.70
2023-04-19T06:01:23.361Z,2.63
2023-04-19T06:03:53.551Z,2.58
2023-04-19T06:06:24.464Z,2.78
2023-04-19T06:08:53.278Z,2.83
2023-04-19T06:11:26.869Z,2.75
2023-04-19T06:13:58.230Z,3.15
2023-04-19T06:16:25.541Z,2.40
2023-04-19T06:18:52.217Z,2.72
2023-04-19T06:21:18.728Z,2.22
2023-04-19T06:23:45.311Z,3.25
2023-04-19T06:26:11.831Z,2.40
2023-04-19T06:28:38.444Z,2.28
2023-04-19T06:31:05.020Z,2.30
2023-04-19T06:33:31.550Z,2.42
2023-04-19T06:35:58.053Z,2.45
2023-04-19T06:38:24.873Z,2.58
2023-04-19T06:40:51.531Z,1.80
2023-04-19T06:43:18.032Z,2.50
2023-04-19T06:45:44.658Z,2.30
2023-04-19T06:48:11.208Z,2.10
2023-04-19T06:50:37.953Z,2.20
2023-04-19T06:53:04.965Z,2.30
2023-04-19T06:55:31.776Z,1.95
2023-04-19T06:57:58.522Z,1.95
2023-04-19T07:00:25.078Z,2.00
2023-04-19T07:02:52.413Z,2.70
2023-04-19T07:05:19.057Z,2.20
2023-04-19T07:07:45.571Z,2.17
2023-04-19T07:10:12.851Z,2.17
2023-04-19T07:12:39.359Z,1.83
2023-04-19T07:15:06.117Z,1.60
2023-04-19T07:17:35.069Z,1.65
2023-04-19T07:20:01.986Z,2.00
2023-04-19T07:22:28.491Z,1.92
2023-04-19T07:24:54.992Z,2.17
2023-04-19T07:27:21.513Z,2.00
2023-04-19T07:29:48.029Z,1.90
2023-04-19T07:32:15.258Z,2.00
2023-04-19T07:34:42.620Z,2.03
2023-04-19T07:37:09.541Z,2.00
2023-04-19T07:39:36.065Z,1.90
2023-04-19T07:42:02.595Z,2.38
2023-04-19T07:44:29.178Z,1.63
2023-04-19T07:46:55.850Z,1.90
2023-04-19T07:49:22.435Z,1.90
2023-04-19T07:51:49.391Z,1.88
2023-04-19T07:54:20.764Z,1.92
2023-04-19T07:56:47.287Z,1.83
2023-04-19T07:59:13.777Z,2.78
2023-04-19T08:01:40.510Z,2.30
2023-04-19T08:04:08.107Z,2.28
2023-04-19T08:06:37.732Z,2.10
2023-04-19T08:09:04.222Z,1.80
2023-04-19T08:11:31.136Z,2.10
2023-04-19T08:17:09.011Z,1.95
2023-04-19T08:19:14.625Z,2.20
2023-04-19T08:21:41.882Z,2.20
2023-04-19T08:24:08.658Z,1.98
2023-04-19T08:26:35.461Z,2.03
2023-04-19T08:29:01.985Z,2.65
2023-04-19T08:31:28.616Z,2.15
2023-04-19T08:33:55.249Z,2.40
2023-04-19T08:36:35.446Z,1.77
2023-04-19T08:39:12.327Z,2.15
2023-04-19T08:41:48.113Z,1.90
2023-04-19T08:44:25.326Z,2.55
2023-04-19T08:58:44.562Z,2.55
2023-04-19T09:01:26.733Z,2.20
2023-04-19T09:04:07.440Z,3.03
2023-04-19T09:06:47.584Z,2.80
2023-04-19T09:11:51.516Z,2.95
2023-04-19T09:14:19.712Z,2.40
2023-04-19T09:16:46.389Z,2.30
2023-04-19T09:19:23.190Z,2.72
2023-04-19T09:21:53.801Z,2.53
2023-04-19T09:25:02.635Z,2.53
2023-04-19T09:27:34.942Z,2.88
2023-04-19T09:30:02.624Z,2.45
2023-04-19T09:32:42.093Z,2.40
2023-04-19T09:35:08.770Z,3.17
2023-04-19T09:40:25.241Z,2.70
2023-04-19T09:45:30.033Z,2.60
2023-04-19T09:48:02.599Z,3.10
2023-04-19T09:50:31.244Z,2.70
2023-04-19T09:52:59.338Z,2.33
2023-04-19T09:55:28.808Z,2.63
2023-04-19T10:00:23.630Z,2.30
2023-04-19T10:02:57.875Z,2.85
2023-04-19T10:05:25.720Z,2.60
2023-04-19T10:07:54.895Z,2.92
2023-04-19T10:10:33.260Z,2.72
2023-04-19T10:13:19.887Z,2.90
2023-04-19T10:15:53.660Z,3.00
2023-04-19T10:18:24.348Z,2.67
2023-04-19T10:21:01.017Z,2.92
2023-04-19T10:23:28.018Z,2.40
2023-04-19T10:25:58.497Z,3.00
2023-04-19T10:28:25.197Z,2.90
2023-04-19T10:31:02.020Z,2.70
2023-04-19T10:33:31.610Z,2.83
2023-04-19T10:35:59.150Z,2.80
2023-04-19T10:38:44.484Z,2.47
2023-04-19T10:41:18.196Z,2.67
2023-04-19T10:43:55.434Z,3.33
2023-04-19T10:46:22.001Z,3.10
2023-04-19T10:48:53.296Z,2.70
2023-04-19T10:51:22.611Z,3.40
2023-04-19T10:53:49.992Z,3.15
2023-04-19T10:56:21.178Z,2.88
2023-04-19T10:59:03.024Z,3.10
2023-04-19T11:01:39.541Z,2.90
2023-04-19T11:04:13.768Z,3.10
2023-04-19T11:06:52.746Z,3.03
2023-04-19T11:09:29.753Z,2.97
2023-04-19T11:12:03.030Z,3.30
2023-04-19T11:14:36.237Z,3.03
2023-04-19T11:17:05.285Z,3.45
2023-04-19T11:19:31.858Z,2.80
2023-04-19T11:21:59.834Z,2.70
2023-04-19T11:24:26.388Z,2.72
2023-04-19T11:26:55.351Z,3.38
2023-04-19T11:29:22.184Z,3.20
2023-04-19T11:31:48.786Z,2.45
2023-04-19T11:34:15.465Z,3.30
2023-04-19T11:36:52.411Z,3.05
2023-04-19T11:39:19.488Z,2.70
2023-04-19T11:41:47.450Z,3.08
2023-04-19T11:44:20.067Z,2.95
2023-04-19T11:47:03.329Z,3.00
2023-04-19T11:49:31.479Z,3.00
2023-04-19T11:52:05.370Z,3.47
2023-04-19T11:54:33.197Z,3.17
2023-04-19T11:57:04.766Z,3.17
2023-04-19T11:59:32.534Z,2.90
2023-04-19T12:02:10.572Z,3.10
2023-04-19T12:04:37.983Z,3.10
2023-04-19T12:07:05.997Z,3.30
2023-04-19T12:09:36.524Z,3.38
2023-04-19T12:12:03.573Z,3.08
2023-04-19T12:14:31.464Z,3.25
2023-04-19T12:17:10.905Z,2.80
2023-04-19T12:19:42.439Z,3.35
2023-04-19T12:22:10.768Z,2.78
2023-04-19T12:24:37.870Z,2.63
2023-04-19T12:27:04.409Z,2.97
2023-04-19T12:29:31.609Z,2.67
2023-04-19T12:31:58.177Z,3.40
2023-04-19T12:34:24.753Z,2.97
2023-04-19T12:36:51.274Z,3.10
2023-04-19T12:39:17.925Z,2.83
2023-04-19T12:41:44.583Z,3.40
2023-04-19T12:44:11.134Z,3.47
2023-04-19T12:46:37.728Z,3.00
2023-04-19T12:49:04.365Z,2.78
2023-04-19T12:51:31.794Z,3.40
2023-04-19T12:53:58.297Z,2.92
2023-04-19T12:56:24.811Z,3.20
2023-04-19T12:58:51.760Z,3.17
2023-04-19T13:01:18.309Z,3.15
2023-04-19T13:03:46.259Z,2.85
2023-04-19T13:06:15.410Z,4.80
2023-04-19T13:08:46.976Z,3.78
2023-04-19T13:11:15.803Z,3.47
2023-04-19T13:13:42.451Z,3.90
2023-04-19T13:16:09.252Z,4.05
2023-04-19T13:18:35.831Z,3.40
2023-04-19T13:21:02.455Z,3.45
2023-04-19T13:23:28.936Z,3.70
2023-04-19T13:25:55.448Z,3.85
2023-04-19T13:28:22.011Z,3.30
2023-04-19T13:30:48.767Z,3.17
2023-04-19T13:33:15.748Z,3.78
2023-04-19T13:35:45.011Z,2.97
2023-04-19T13:38:11.673Z,3.97
2023-04-19T13:40:39.605Z,3.33
2023-04-19T13:43:06.171Z,3.20
2023-04-19T13:45:32.680Z,3.95
2023-04-19T13:47:59.705Z,3.13
2023-04-19T13:50:26.315Z,3.53
2023-04-19T13:52:53.338Z,3.67
2023-04-19T13:55:20.297Z,3.20
2023-04-19T13:57:46.773Z,3.22
2023-04-19T14:00:13.777Z,2.83
2023-04-19T14:02:40.496Z,2.78
2023-04-19T14:05:07.458Z,4.03
2023-04-19T14:07:33.988Z,3.60
2023-04-19T14:10:00.555Z,3.10
2023-04-19T14:12:29.478Z,3.13
2023-04-19T14:14:56.051Z,3.70
2023-04-19T14:17:22.586Z,3.13
2023-04-19T14:19:49.155Z,3.03
2023-04-19T14:22:18.676Z,3.15
2023-04-19T14:24:46.287Z,3.70
2023-04-19T14:27:12.754Z,3.63
2023-04-19T14:29:39.816Z,3.08
2023-04-19T14:32:23.621Z,3.47
2023-04-19T14:34:52.480Z,3.58
2023-04-19T14:37:19.253Z,3.45
2023-04-19T14:39:46.256Z,3.53
2023-04-19T14:42:12.824Z,3.22
2023-04-19T14:44:40.341Z,3.80
2023-04-19T14:47:06.823Z,3.47
2023-04-19T14:49:33.532Z,3.75
2023-04-19T14:52:00.031Z,3.30
2023-04-19T14:54:26.552Z,4.20
2023-04-19T14:56:53.727Z,3.90
2023-04-19T14:59:22.943Z,4.43
2023-04-19T15:01:49.535Z,4.32
2023-04-19T15:04:19.525Z,4.72
2023-04-19T15:06:49.067Z,4.60
2023-04-19T15:09:18.876Z,5.13
2023-04-19T15:11:47.770Z,5.22
2023-04-19T15:14:14.335Z,5.68
2023-04-19T15:16:40.930Z,5.45
2023-04-19T15:19:07.964Z,6.90
2023-04-19T15:21:34.647Z,5.35
2023-04-19T15:24:01.560Z,5.70
2023-04-19T15:26:28.255Z,5.45
2023-04-19T15:28:55.777Z,5.80
2023-04-19T15:31:22.563Z,5.10
2023-04-19T15:33:49.308Z,4.82
2023-04-19T15:36:16.281Z,6.10
2023-04-19T15:38:44.038Z,5.82
2023-04-19T15:41:11.065Z,5.97
2023-04-19T15:43:37.534Z,6.78
2023-04-19T15:46:04.188Z,5.80
2023-04-19T15:48:30.770Z,6.88
2023-04-19T15:50:57.305Z,6.45
2023-04-19T15:53:23.959Z,6.70
2023-04-19T15:55:50.491Z,6.55
2023-04-19T15:58:17.059Z,8.15
2023-04-19T16:00:43.569Z,7.05
2023-04-19T16:03:12.412Z,7.97
2023-04-19T16:05:39.169Z,7.15
2023-04-19T16:08:09.987Z,7.68
2023-04-19T16:10:36.897Z,7.28
2023-04-19T16:13:04.858Z,8.05
2023-04-19T16:15:31.896Z,8.23
2023-04-19T16:17:58.634Z,8.63
2023-04-19T16:20:25.175Z,7.90
2023-04-19T16:22:51.653Z,7.70
2023-04-19T16:25:18.211Z,8.30
2023-04-19T16:27:46.208Z,7.63
2023-04-19T16:30:13.713Z,8.65
2023-04-19T16:32:41.516Z,7.85
2023-04-19T16:35:08.390Z,7.28
2023-04-19T16:37:35.634Z,7.70
2023-04-19T16:40:08.021Z,8.10
2023-04-19T16:42:35.018Z,7.70
2023-04-19T16:45:01.507Z,9.90
2023-04-19T16:47:30.039Z,8.82
2023-04-19T16:49:57.398Z,8.55
2023-04-19T16:52:26.142Z,8.75
2023-04-19T16:54:52.784Z,7.80
2023-04-19T16:57:19.488Z,8.95
2023-04-19T16:59:46.495Z,8.32
2023-04-19T17:02:13.207Z,9.13
2023-04-19T17:04:40.047Z,9.35
2023-04-19T17:07:08.545Z,9.52
2023-04-19T17:09:35.609Z,8.13
2023-04-19T17:12:02.305Z,9.02
2023-04-19T17:14:28.902Z,7.90
2023-04-19T17:16:55.605Z,9.82
2023-04-19T17:19:22.066Z,9.13
2023-04-19T17:21:48.645Z,10.00
2023-04-19T17:24:15.135Z,9.30
2023-04-19T17:26:41.665Z,8.52
2023-04-19T17:29:08.459Z,7.78
2023-04-19T17:31:35.233Z,8.95
2023-04-19T17:34:01.759Z,9.25
2023-04-19T17:36:28.658Z,9.68
2023-04-19T17:38:55.253Z,9.20
2023-04-19T17:41:21.789Z,8.40
2023-04-19T17:43:48.353Z,8.05
2023-04-19T17:46:15.107Z,7.45
2023-04-19T17:48:41.905Z,8.13
2023-04-19T17:51:08.433Z,8.30
2023-04-19T17:53:34.939Z,8.85
2023-04-19T17:56:01.747Z,8.15
2023-04-19T17:58:28.304Z,7.20
2023-04-19T18:00:54.782Z,7.55
2023-04-19T18:03:21.414Z,6.90
2023-04-19T18:05:48.373Z,7.43
2023-04-19T18:08:15.180Z,7.90
2023-04-19T18:10:41.675Z,8.25
2023-04-19T18:13:08.230Z,7.82
2023-04-19T18:15:34.716Z,8.82
2023-04-19T18:18:01.280Z,8.07
2023-04-19T18:20:27.882Z,7.90
2023-04-19T18:22:54.408Z,7.57
2023-04-19T18:25:21.005Z,7.15
2023-04-19T18:27:48.329Z,7.80
2023-04-19T18:30:14.872Z,8.23
2023-04-19T18:32:41.405Z,7.60
2023-04-19T18:35:11.198Z,8.27
2023-04-19T18:37:37.815Z,8.10
2023-04-19T18:40:07.356Z,8.32
2023-04-19T18:42:33.950Z,8.25
2023-04-19T18:45:00.478Z,9.10
2023-04-19T18:47:27.062Z,8.65
2023-04-19T18:50:04.630Z,10.05
2023-04-19T18:52:34.300Z,9.05
2023-04-19T18:55:00.949Z,9.95
2023-04-19T18:57:27.987Z,8.85
2023-04-19T18:59:57.743Z,10.43
2023-04-19T19:02:24.461Z,10.43
2023-04-19T19:04:57.972Z,10.57
2023-04-19T19:07:36.288Z,10.85
2023-04-19T19:10:17.093Z,10.88
2023-04-19T19:12:45.638Z,11.10
2023-04-19T19:15:14.090Z,11.57
2023-04-19T19:17:40.991Z,11.98
2023-04-19T19:20:08.186Z,12.80
2023-04-19T19:22:34.858Z,11.00
2023-04-19T19:25:01.453Z,11.68
2023-04-19T19:27:28.011Z,11.55
2023-04-19T19:29:55.023Z,12.13
2023-04-19T19:32:22.238Z,13.52
2023-04-19T19:37:19.198Z,11.98
2023-04-19T19:39:46.509Z,13.38
2023-04-19T19:42:16.297Z,13.43
2023-04-19T19:44:43.031Z,13.30
2023-04-19T19:47:10.892Z,14.35
2023-04-19T19:52:07.420Z,14.15
2023-04-19T19:54:34.057Z,14.60
2023-04-19T19:57:48.319Z,13.77
2023-04-19T19:59:54.372Z,13.70
2023-04-19T20:02:23.332Z,13.75
2023-04-19T20:04:50.749Z,14.10
2023-04-19T20:07:33.224Z,14.40
2023-04-19T20:10:14.568Z,14.93
2023-04-19T20:12:42.918Z,15.95
2023-04-19T20:15:13.259Z,14.15
2023-04-19T20:17:40.654Z,15.15
2023-04-19T20:20:08.934Z,14.98
2023-04-19T20:22:35.733Z,15.55
2023-04-19T20:25:02.223Z,15.07
2023-04-19T20:27:28.751Z,16.55
2023-04-19T20:29:56.592Z,16.35
2023-04-19T20:32:23.367Z,17.02
2023-04-19T20:34:49.984Z,16.23
2023-04-19T20:37:17.485Z,17.58
2023-04-19T20:39:44.140Z,16.08
2023-04-19T20:42:10.617Z,17.40
2023-04-19T20:44:37.387Z,16.05
2023-04-19T20:47:03.888Z,18.23
2023-04-19T20:49:30.341Z,17.95
2023-04-19T20:51:56.839Z,17.05
2023-04-19T20:54:23.337Z,17.40
2023-04-19T20:56:52.402Z,17.70
2023-04-19T20:59:19.106Z,16.48
2023-04-19T21:01:45.758Z,15.05
2023-04-19T21:04:12.327Z,16.45
2023-04-19T21:06:39.049Z,16.08
2023-04-19T21:09:05.566Z,16.92
2023-04-19T21:11:32.136Z,17.88
2023-04-19T21:13:58.640Z,17.58
2023-04-19T21:16:25.381Z,19.00
2023-04-19T21:18:51.978Z,16.70
2023-04-19T21:21:18.508Z,16.40
2023-04-19T21:23:45.096Z,15.18
2023-04-19T21:26:11.786Z,13.50
2023-04-19T21:28:38.330Z,16.10
2023-04-19T21:31:05.116Z,15.15
2023-04-19T21:33:31.681Z,14.23
2023-04-19T21:35:58.176Z,14.13
2023-04-19T21:38:24.668Z,14.25
2023-04-19T21:40:51.937Z,14.15
2023-04-19T21:43:18.528Z,14.00
2023-04-19T21:45:45.015Z,14.88
2023-04-19T21:48:12.003Z,13.80
2023-04-19T21:50:38.542Z,15.15
2023-04-19T21:53:05.050Z,13.35
2023-04-19T21:55:32.402Z,15.40
2023-04-19T21:57:59.025Z,14.32
2023-04-19T22:00:25.547Z,14.57
2023-04-19T22:02:52.172Z,14.00
2023-04-19T22:05:18.858Z,15.00
2023-04-19T22:07:45.425Z,14.60
2023-04-19T22:10:13.653Z,14.68
2023-04-19T22:12:48.253Z,14.93
2023-04-19T22:15:25.812Z,15.10
2023-04-19T22:17:52.326Z,15.27
2023-04-19T22:20:18.813Z,15.60
2023-04-19T22:22:45.347Z,15.50
2023-04-19T22:25:11.822Z,14.77
2023-04-19T22:27:38.313Z,13.88
2023-04-19T22:30:05.494Z,14.43
2023-04-19T22:32:32.100Z,14.18
2023-04-19T22:34:58.618Z,13.48
2023-04-19T22:37:25.130Z,12.90
2023-04-19T22:39:51.637Z,14.30
2023-04-19T22:42:18.154Z,14.57
2023-04-19T22:44:44.641Z,13.73
2023-04-19T22:47:11.920Z,14.18
2023-04-19T22:49:38.438Z,13.88
2023-04-19T22:52:04.938Z,14.00
2023-04-19T22:54:31.409Z,14.38
2023-04-19T22:56:59.092Z,13.48
2023-04-19T22:59:25.576Z,14.30
2023-04-19T23:01:52.168Z,13.65
2023-04-19T23:04:19.589Z,13.38
2023-04-19T23:06:48.785Z,13.63
2023-04-19T23:09:15.874Z,13.55
2023-04-19T23:11:42.595Z,12.70
2023-04-19T23:14:10.353Z,12.70
2023-04-19T23:16:38.575Z,13.55
2023-04-19T23:19:08.199Z,12.65
2023-04-19T23:21:34.713Z,13.70
2023-04-19T23:24:01.296Z,13.45
2023-04-19T23:26:27.874Z,13.85
2023-04-19T23:28:54.408Z,13.25
2023-04-19T23:31:21.099Z,13.07
2023-04-19T23:33:48.162Z,13.45
2023-04-19T23:36:14.832Z,12.27
2023-04-19T23:38:41.344Z,13.98
2023-04-19T23:41:11.189Z,13.43
2023-04-19T23:43:37.813Z,13.55
2023-04-19T23:46:04.361Z,14.18
2023-04-19T23:48:31.026Z,14.70
2023-04-19T23:50:57.507Z,13.73
2023-04-19T23:53:24.000Z,13.90
2023-04-19T23:55:50.853Z,14.07
2023-04-19T23:58:17.357Z,13.90
